Empress — 9HJE9 — position and weather

sailwx.info

Track history (hours):
 
Tides and Currents Weather Stations Pressure Air Temp Water Temp Dewpoint Dewpoint Depression Visibility Wind Speed Wind Dir Waves Ship Positions

Empress

Last reported at 2016-Feb-13 21:20 UTC. Time now 2018-Aug-18 22:28 UTC.
Position S 24°04' W 046°05'.
Warning: this ship's position is years out of date!

Length 211 m; draft 7.3 m.

Type: Passenger vessel. MMSI: 249056000.

Date/timePositionNaut miles runAvg speedWind from/ knotsBaromVisibWave heightAir tempDewpointWater temp
2016-Feb-13 21:20S 24°04' W 046°05'1216.1
2016-Feb-13 20:33S 24°03' W 046°18'5 0.6
2016-Feb-13 11:31S 23°58' W 046°18'6 6.3
2016-Feb-13 10:33S 24°04' W 046°17'1413.9
2016-Feb-13 09:31S 24°03' W 046°01'  
2016-Feb-10 17:22S 13°13' W 038°37'1417.0
2016-Feb-10 16:34S 12°60' W 038°34'3 3.1
2016-Feb-10 15:33S 12°58' W 038°31'0 0.0
2016-Feb-10 14:33S 12°58' W 038°31'0 0.0
2016-Feb-10 13:33S 12°58' W 038°31'0 0.0
2016-Feb-10 12:33S 12°58' W 038°31'0 0.0
2016-Feb-10 11:33S 12°58' W 038°31'0 0.0
2016-Feb-10 10:33S 12°58' W 038°31'0 0.0
2016-Feb-10 09:33S 12°58' W 038°31'0 0.0
2016-Feb-10 08:33S 12°58' W 038°31'0 0.0
2016-Feb-10 07:33S 12°58' W 038°31'0 0.0
2016-Feb-10 06:33S 12°58' W 038°31'0 0.0
2016-Feb-10 05:33S 12°58' W 038°31'0 0.0
2016-Feb-10 04:33S 12°58' W 038°31'0 0.0
2016-Feb-10 03:33S 12°58' W 038°31'0 0.0
2016-Feb-10 02:33S 12°58' W 038°31'0 0.0
2016-Feb-10 01:33S 12°58' W 038°31'0 0.0
2016-Feb-10 00:33S 12°58' W 038°31'0 0.0
2016-Feb-09 23:33S 12°58' W 038°31'0 0.0
2016-Feb-09 22:33S 12°58' W 038°31'0 0.0
2016-Feb-09 21:33S 12°58' W 038°31'0 0.0
2016-Feb-09 20:33S 12°58' W 038°31'0 0.0
2016-Feb-09 19:33S 12°58' W 038°31'0 0.0
2016-Feb-09 18:33S 12°58' W 038°31'0 0.0
2016-Feb-09 17:33S 12°58' W 038°31'0 0.0
2016-Feb-09 16:33S 12°58' W 038°31'0 0.0
2016-Feb-09 15:30S 12°58' W 038°31'0 0.0
2016-Feb-09 14:33S 12°58' W 038°31'0 0.0
2016-Feb-09 13:33S 12°58' W 038°31'0 0.0
2016-Feb-09 12:33S 12°58' W 038°31'0 0.0
2016-Feb-09 11:33S 12°58' W 038°31'0 0.0
2016-Feb-09 10:33S 12°58' W 038°31'0 0.2
2016-Feb-09 09:33S 12°58' W 038°31'7 7.2
2016-Feb-09 08:33S 13°04' W 038°34'1413.1
2016-Feb-09 07:31S 13°18' W 038°37'  
2016-Feb-06 21:15S 24°05' W 046°06'1217.8
2016-Feb-06 20:34S 24°03' W 046°19'5 0.5
2016-Feb-06 10:33S 23°58' W 046°18'9 8.7
2016-Feb-06 09:34S 24°05' W 046°22'1413.6
2016-Feb-06 08:33S 24°18' W 046°28'1615.5
2016-Feb-06 07:33S 24°32' W 046°35'172 5.3
2016-Feb-04 23:04S 26°54' W 048°21'162 6.9
2016-Feb-03 23:33S 24°39' W 046°42'1616.2
2016-Feb-03 22:34S 24°25' W 046°34'1616.4
2016-Feb-03 21:33S 24°11' W 046°25'  
Track history (hours):
 
Tides and Currents Weather Stations Pressure Air Temp Water Temp Dewpoint Dewpoint Depression Visibility Wind Speed Wind Dir Waves Ship Positions

Empress

Last reported at 2016-Feb-13 21:20 UTC. Time now 2018-Aug-18 22:28 UTC.
Position S 24°04' W 046°05'.
Warning: this ship's position is years out of date!

Length 211 m; draft 7.3 m.

Type: Passenger vessel. MMSI: 249056000.

Date/timePositionNaut miles runAvg speedWind from/ knotsBaromVisibWave heightAir tempDewpointWater temp
2016-Feb-13 21:20S 24°04' W 046°05'1216.1
2016-Feb-13 20:33S 24°03' W 046°18'5 0.6
2016-Feb-13 11:31S 23°58' W 046°18'6 6.3
2016-Feb-13 10:33S 24°04' W 046°17'1413.9
2016-Feb-13 09:31S 24°03' W 046°01'  
2016-Feb-10 17:22S 13°13' W 038°37'1417.0
2016-Feb-10 16:34S 12°60' W 038°34'3 3.1
2016-Feb-10 15:33S 12°58' W 038°31'0 0.0
2016-Feb-10 14:33S 12°58' W 038°31'0 0.0
2016-Feb-10 13:33S 12°58' W 038°31'0 0.0
2016-Feb-10 12:33S 12°58' W 038°31'0 0.0
2016-Feb-10 11:33S 12°58' W 038°31'0 0.0
2016-Feb-10 10:33S 12°58' W 038°31'0 0.0
2016-Feb-10 09:33S 12°58' W 038°31'0 0.0
2016-Feb-10 08:33S 12°58' W 038°31'0 0.0
2016-Feb-10 07:33S 12°58' W 038°31'0 0.0
2016-Feb-10 06:33S 12°58' W 038°31'0 0.0
2016-Feb-10 05:33S 12°58' W 038°31'0 0.0
2016-Feb-10 04:33S 12°58' W 038°31'0 0.0
2016-Feb-10 03:33S 12°58' W 038°31'0 0.0
2016-Feb-10 02:33S 12°58' W 038°31'0 0.0
2016-Feb-10 01:33S 12°58' W 038°31'0 0.0
2016-Feb-10 00:33S 12°58' W 038°31'0 0.0
2016-Feb-09 23:33S 12°58' W 038°31'0 0.0
2016-Feb-09 22:33S 12°58' W 038°31'0 0.0
2016-Feb-09 21:33S 12°58' W 038°31'0 0.0
2016-Feb-09 20:33S 12°58' W 038°31'0 0.0
2016-Feb-09 19:33S 12°58' W 038°31'0 0.0
2016-Feb-09 18:33S 12°58' W 038°31'0 0.0
2016-Feb-09 17:33S 12°58' W 038°31'0 0.0
2016-Feb-09 16:33S 12°58' W 038°31'0 0.0
2016-Feb-09 15:30S 12°58' W 038°31'0 0.0
2016-Feb-09 14:33S 12°58' W 038°31'0 0.0
2016-Feb-09 13:33S 12°58' W 038°31'0 0.0
2016-Feb-09 12:33S 12°58' W 038°31'0 0.0
2016-Feb-09 11:33S 12°58' W 038°31'0 0.0
2016-Feb-09 10:33S 12°58' W 038°31'0 0.2
2016-Feb-09 09:33S 12°58' W 038°31'7 7.2
2016-Feb-09 08:33S 13°04' W 038°34'1413.1
2016-Feb-09 07:31S 13°18' W 038°37'  
2016-Feb-06 21:15S 24°05' W 046°06'1217.8
2016-Feb-06 20:34S 24°03' W 046°19'5 0.5
2016-Feb-06 10:33S 23°58' W 046°18'9 8.7
2016-Feb-06 09:34S 24°05' W 046°22'1413.6
2016-Feb-06 08:33S 24°18' W 046°28'1615.5
2016-Feb-06 07:33S 24°32' W 046°35'172 5.3
2016-Feb-04 23:04S 26°54' W 048°21'162 6.9
2016-Feb-03 23:33S 24°39' W 046°42'1616.2
2016-Feb-03 22:34S 24°25' W 046°34'1616.4
2016-Feb-03 21:33S 24°11' W 046°25'  

Dump ship's entire track history